Portada
METAR-TAF:

METAR-TAF

Aeroports :

Calhoun, Geòrgia, Estats Units d'Amèrica

latitud: 34-27-20N, longitud: 084-56-21W, altitud: 198 m

Observació

L'informe es va fer fa 11 minuts, a les 15:15 UTC
Vent 5 kt del Est
Temperatura 25°C
Humitat 50%
Pressió 1025 hPa
Visibilitat: 16.1 km
Núvols disperses a una alçada de 3700 ft

METAR: KCZL 011515Z AUTO 09005KT 10SM SCT037 25/14 A3027 RMK AO2

Hora: 11:26 (15:26 UTC)


TAF: manca

Observacions i pronòstics meteorològics de més de 4000 aeroports (METAR i TAF).

Les estacions disponibles són els punts grocs i vermells al mapa.

Posi el ratolí al punt desitjat per veure el nom de l'estació.

Feu clic per veure les observacions i els pronòstics meteorològics.

Per canviar el mapa: feu clic els botons verds amb una creu de color negre per apropar; al botó verd amb un guió per allunyar la imatge; o en les fletxes verdes per a mapes adjacents.


METAR-TAF: